createdAt,value
2019-03-12T05:00:25.156Z,101719.83
2019-03-12T05:03:53.060Z,101719.51
2019-03-12T05:07:28.202Z,101716.75
2019-03-12T05:10:56.081Z,101714.36
2019-03-12T05:14:23.972Z,101707.54
2019-03-12T05:17:52.862Z,101703.65
2019-03-12T05:21:20.750Z,101708.18
2019-03-12T05:24:48.647Z,101704.46
2019-03-12T05:28:16.546Z,101707.98
2019-03-12T05:31:44.424Z,101717.87
2019-03-12T05:35:12.323Z,101714.61
2019-03-12T05:38:40.231Z,101720.9
2019-03-12T05:42:08.118Z,101723.54
2019-03-12T05:45:36.007Z,101727
2019-03-12T05:49:04.905Z,101716.1
2019-03-12T05:52:32.798Z,101723.35
2019-03-12T05:56:00.697Z,101725.64
2019-03-12T05:59:28.598Z,101731.14
2019-03-12T06:02:56.502Z,101728.65
2019-03-12T06:06:24.389Z,101725.04
2019-03-12T06:09:52.287Z,101711.74
2019-03-12T06:13:20.187Z,101711
2019-03-12T06:16:48.087Z,101701.68
2019-03-12T06:20:15.963Z,101700.76
2019-03-12T06:23:43.882Z,101703.53
2019-03-12T06:27:11.799Z,101703.57
2019-03-12T06:30:42.652Z,101707.28
2019-03-12T06:34:10.558Z,101703.37
2019-03-12T06:37:38.467Z,101704.04
2019-03-12T06:41:06.396Z,101703.31
2019-03-12T06:44:34.284Z,101700.2
2019-03-12T06:48:02.179Z,101698.18
2019-03-12T06:51:30.260Z,101703.83
2019-03-12T06:54:58.153Z,101706.79
2019-03-12T06:58:26.055Z,101706.5
2019-03-12T07:01:53.991Z,101705.79
2019-03-12T07:05:21.876Z,101709.06
2019-03-12T07:08:49.784Z,101712.78
2019-03-12T07:12:17.678Z,101716.23
2019-03-12T07:15:46.411Z,101712.28
2019-03-12T07:19:14.319Z,101712.04
2019-03-12T07:22:42.285Z,101709.06
2019-03-12T07:26:10.212Z,101717.89
2019-03-12T07:29:39.097Z,101702
2019-03-12T07:33:06.999Z,101696.14
2019-03-12T07:36:34.918Z,101689.04
2019-03-12T07:40:02.798Z,101692.14
2019-03-12T07:43:30.699Z,101693.43
2019-03-12T07:46:58.620Z,101690.83
2019-03-12T07:50:26.500Z,101693.78
2019-03-12T07:53:59.615Z,101693.53
2019-03-12T07:57:27.299Z,101689.05
2019-03-12T08:00:55.181Z,101693.7
2019-03-12T08:04:23.139Z,101698.34
2019-03-12T08:07:51.063Z,101694.61
2019-03-12T08:11:18.984Z,101707.67
2019-03-12T08:14:46.926Z,101705.53
2019-03-12T08:18:14.826Z,101708.35
2019-03-12T08:21:42.707Z,101703.71
2019-03-12T08:25:12.606Z,101700.14
2019-03-12T08:28:40.502Z,101700.31
2019-03-12T08:32:08.406Z,101698.32
2019-03-12T08:35:36.332Z,101702.46
2019-03-12T08:39:04.281Z,101691.42
2019-03-12T08:42:32.227Z,101683.86
2019-03-12T08:46:00.107Z,101678.75
2019-03-12T08:49:28.013Z,101680.4
2019-03-12T08:52:57.894Z,101667.78
2019-03-12T08:56:25.773Z,101667.6
2019-03-12T08:59:54.674Z,101665.15
2019-03-12T09:03:22.569Z,101665.02
2019-03-12T09:06:50.491Z,101661.26
2019-03-12T09:10:18.369Z,101649.28
2019-03-12T09:13:46.369Z,101644.1
2019-03-12T09:17:15.268Z,101630.01
2019-03-12T09:20:43.150Z,101623
2019-03-12T09:24:11.057Z,101629.23
2019-03-12T09:27:38.954Z,101617.57
2019-03-12T09:31:06.839Z,101617.5
2019-03-12T09:34:34.751Z,101613.28
2019-03-12T09:38:02.658Z,101612.68
2019-03-12T09:41:30.633Z,101600.72
2019-03-12T09:44:58.447Z,101593.92
2019-03-12T09:48:26.333Z,101582.09
2019-03-12T09:51:54.213Z,101565.98
2019-03-12T09:55:22.153Z,101570.31
2019-03-12T09:58:50.058Z,101564.7
2019-03-12T10:02:17.970Z,101566.87
2019-03-12T10:05:45.850Z,101557.92
2019-03-12T10:09:14.743Z,101567.09
2019-03-12T10:12:45.190Z,101559.45
2019-03-12T10:16:11.515Z,101554.6
2019-03-12T10:19:39.415Z,101554.23
2019-03-12T10:23:07.326Z,101555.22
2019-03-12T10:26:35.213Z,101547.99
2019-03-12T10:30:03.100Z,101550.82
2019-03-12T10:33:31.001Z,101544.78
2019-03-12T10:37:11.189Z,101536.11
2019-03-12T10:40:32.728Z,101531.69
2019-03-12T10:44:01.623Z,101524.2
2019-03-12T10:47:29.497Z,101522.57
2019-03-12T10:50:57.423Z,101509.69
2019-03-12T10:54:25.332Z,101508.27
2019-03-12T10:57:54.192Z,101502.48
2019-03-12T11:01:22.092Z,101489.17
2019-03-12T11:04:49.987Z,101485.17
2019-03-12T11:08:24.924Z,101481.64
2019-03-12T11:11:52.821Z,101474.2
2019-03-12T11:15:20.737Z,101468.03
2019-03-12T11:18:48.644Z,101451.53
2019-03-12T11:22:17.507Z,101447.64
2019-03-12T11:25:45.414Z,101439.18
2019-03-12T11:29:13.313Z,101444.42
2019-03-12T11:32:41.200Z,101439.21
2019-03-12T11:36:09.103Z,101426.73
2019-03-12T11:39:36.997Z,101428.21
2019-03-12T11:43:04.888Z,101415.84
2019-03-12T11:46:42.317Z,101395.75
2019-03-12T11:50:07.608Z,101399.53
2019-03-12T11:53:35.486Z,101388.78
2019-03-12T11:57:03.420Z,101388.87
2019-03-12T12:00:31.432Z,101379.51
2019-03-12T12:03:59.205Z,101384.35
2019-03-12T12:07:27.106Z,101372.39
2019-03-12T12:10:55.983Z,101363.31
2019-03-12T12:14:24.908Z,101359.43
2019-03-12T12:17:52.795Z,101352.03
2019-03-12T12:21:20.711Z,101347.35
2019-03-12T12:24:48.645Z,101329.28
2019-03-12T12:28:16.543Z,101313.45
2019-03-12T12:31:47.342Z,101316.57
2019-03-12T12:35:14.366Z,101304.64
2019-03-12T12:38:42.228Z,101301.79
2019-03-12T12:42:10.146Z,101290.69
2019-03-12T12:45:38.157Z,101289.1
2019-03-12T12:49:06.141Z,101273.95
2019-03-12T12:52:34.114Z,101274.99
2019-03-12T12:56:01.992Z,101259.53
2019-03-12T12:59:30.883Z,101245.01
2019-03-12T13:02:59.785Z,101237.84
2019-03-12T13:06:27.674Z,101251.48
2019-03-12T13:09:55.585Z,101232
2019-03-12T13:13:23.489Z,101229.7
2019-03-12T13:16:51.394Z,101229.1
2019-03-12T13:20:20.282Z,101215.02
2019-03-12T13:23:49.165Z,101216.43
2019-03-12T13:27:17.076Z,101211.89
2019-03-12T13:30:44.988Z,101207.18
2019-03-12T13:34:12.891Z,101215.65
2019-03-12T13:37:41.802Z,101206.71
2019-03-12T13:41:09.740Z,101194.58
2019-03-12T13:44:37.702Z,101194.53
2019-03-12T13:48:05.662Z,101180.57
2019-03-12T13:51:33.538Z,101177.92
2019-03-12T13:55:02.847Z,101173.92
2019-03-12T13:58:30.414Z,101147.95
2019-03-12T14:01:58.291Z,101142.17
2019-03-12T14:05:26.197Z,101139.56
2019-03-12T14:08:54.094Z,101125.23
2019-03-12T14:12:21.983Z,101114.64
2019-03-12T14:15:49.890Z,101112.31
2019-03-12T14:19:19.762Z,101105.75
2019-03-12T14:22:49.832Z,101099.64
2019-03-12T14:26:16.542Z,101095.31
2019-03-12T14:29:44.443Z,101083.45
2019-03-12T14:33:12.352Z,101072.88
2019-03-12T14:36:40.267Z,101062.78
2019-03-12T14:40:08.193Z,101051.92
2019-03-12T14:43:36.222Z,101045.15
2019-03-12T14:47:06.257Z,101040.77
2019-03-12T14:50:34.145Z,101031.03
2019-03-12T14:54:02.082Z,101028.78
2019-03-12T14:57:31.053Z,101012.78
2019-03-12T15:00:58.967Z,100999.93
2019-03-12T15:04:26.993Z,100989.57
2019-03-12T15:07:54.888Z,100981.36
2019-03-12T15:11:22.771Z,100976.96
2019-03-12T15:14:50.730Z,100967.23
2019-03-12T15:18:18.781Z,100957.79
2019-03-12T15:21:46.693Z,100944.57
2019-03-12T15:25:14.572Z,100934.57
2019-03-12T15:28:42.483Z,100920.92
2019-03-12T15:32:10.384Z,100920.87
2019-03-12T15:35:38.267Z,100909.28
2019-03-12T15:39:06.183Z,100898.85
2019-03-12T15:42:34.885Z,100890.64
2019-03-12T15:46:03.776Z,100879.14
2019-03-12T15:49:32.669Z,100873.78
2019-03-12T15:53:03.563Z,100867.12
2019-03-12T15:56:31.473Z,100855.54
2019-03-12T15:59:59.365Z,100837.59
2019-03-12T16:03:28.259Z,100831.32
2019-03-12T16:07:01.480Z,100826.84
2019-03-12T16:10:28.007Z,100813.35
2019-03-12T16:13:56.909Z,100805.6
2019-03-12T16:17:24.825Z,100791.4
2019-03-12T16:20:53.706Z,100790.98
2019-03-12T16:24:21.657Z,100784.89
2019-03-12T16:27:49.556Z,100776.17
2019-03-12T16:31:17.457Z,100770
2019-03-12T16:34:45.341Z,100757.64
2019-03-12T16:38:13.252Z,100744.22
2019-03-12T16:41:41.154Z,100736.09
2019-03-12T16:45:09.030Z,100728.84
2019-03-12T16:48:38.639Z,100723.32
2019-03-12T16:52:05.809Z,100714.94
2019-03-12T16:55:33.692Z,100700.83
2019-03-12T16:59:01.589Z,100698.59
2019-03-12T17:02:31.474Z,100687.78
2019-03-12T17:05:59.427Z,100685.34
2019-03-12T17:09:34.676Z,100674.38
2019-03-12T17:13:02.573Z,100668.23
2019-03-12T17:16:31.456Z,100663.78
2019-03-12T17:19:59.329Z,100656.04
2019-03-12T17:23:27.252Z,100645.04
2019-03-12T17:26:55.195Z,100648.22
2019-03-12T17:30:23.105Z,100645.26
2019-03-12T17:33:51.596Z,100645.76
2019-03-12T17:37:19.504Z,100639.66
2019-03-12T17:40:47.393Z,100639.42
2019-03-12T17:44:15.271Z,100622.67
2019-03-12T17:47:43.153Z,100604.93
2019-03-12T17:51:11.076Z,100588.23
2019-03-12T17:54:39.058Z,100581.05
2019-03-12T17:58:06.960Z,100569.07
2019-03-12T18:01:35.845Z,100552.62
2019-03-12T18:05:03.736Z,100539.82
2019-03-12T18:08:31.663Z,100522.84
2019-03-12T18:11:59.538Z,100531.07
2019-03-12T18:15:27.433Z,100532.28
2019-03-12T18:18:55.304Z,100516.26
2019-03-12T18:22:27.710Z,100503.57
2019-03-12T18:25:55.620Z,100479.81
2019-03-12T18:29:24.442Z,100469.73
2019-03-12T18:32:52.328Z,100463.46
2019-03-12T18:36:23.317Z,100449.7
2019-03-12T18:39:51.277Z,100441.35
2019-03-12T18:43:19.178Z,100441.35
2019-03-12T18:46:47.143Z,100429.22
2019-03-12T18:50:15.088Z,100414.78
2019-03-12T18:53:42.984Z,100412.51
2019-03-12T18:57:10.946Z,100403.7
2019-03-12T19:00:38.911Z,100399.52
2019-03-12T19:04:06.806Z,100398.95
2019-03-12T19:07:38.125Z,100384.56
2019-03-12T19:11:06.115Z,100379.35
2019-03-12T19:14:34.012Z,100368.43
2019-03-12T19:18:01.924Z,100364.26
2019-03-12T19:21:29.904Z,100359.76
2019-03-12T19:24:57.794Z,100356.21
2019-03-12T19:28:25.695Z,100355.53
2019-03-12T19:31:53.608Z,100324.84
2019-03-12T19:35:21.501Z,100314.4
2019-03-12T19:38:49.403Z,100285.82
2019-03-12T19:42:17.312Z,100266.26
2019-03-12T19:45:46.289Z,100248.92
2019-03-12T19:49:14.185Z,100246.5
2019-03-12T19:52:42.089Z,100236.73
2019-03-12T19:56:11.044Z,100228.14
2019-03-12T19:59:38.943Z,100223.32
2019-03-12T20:03:11.938Z,100204.3
2019-03-12T20:06:39.893Z,100188.67
2019-03-12T20:10:07.713Z,100172.82
2019-03-12T20:13:35.616Z,100158.07
2019-03-12T20:17:09.347Z,100145.75
2019-03-12T20:20:35.381Z,100135.21
2019-03-12T20:24:03.323Z,100133.07
2019-03-12T20:27:35.699Z,100125.85
2019-03-12T20:31:04.583Z,100110.6
2019-03-12T20:34:33.027Z,100101.01
2019-03-12T20:38:01.937Z,100097.15
2019-03-12T20:41:29.882Z,100091
2019-03-12T20:44:57.832Z,100074.67
2019-03-12T20:48:25.728Z,100084.89
2019-03-12T20:51:53.642Z,100078.63
2019-03-12T20:55:21.581Z,100071.82
2019-03-12T20:58:49.591Z,100067.75
2019-03-12T21:02:17.572Z,100056.28
2019-03-12T21:05:46.461Z,100044.71
2019-03-12T21:09:14.484Z,100048.73
2019-03-12T21:12:43.376Z,100039.32
2019-03-12T21:16:11.286Z,100044.3
2019-03-12T21:19:40.256Z,100047.84
2019-03-12T21:23:08.250Z,100042.95
2019-03-12T21:26:37.130Z,100033.92
2019-03-12T21:30:05.297Z,100016.38
2019-03-12T21:33:34.912Z,99992.562
2019-03-12T21:37:02.722Z,99955.312
2019-03-12T21:40:30.746Z,99945.546
2019-03-12T21:43:58.717Z,99934.718
2019-03-12T21:47:26.688Z,99921.539
2019-03-12T21:50:55.298Z,99909.875
2019-03-12T21:54:23.235Z,99902.265
2019-03-12T21:57:51.130Z,99889.96
2019-03-12T22:01:19.710Z,99888.375
2019-03-12T22:04:47.620Z,99878.015
2019-03-12T22:08:15.513Z,99875.125
2019-03-12T22:11:44.382Z,99859.453
2019-03-12T22:15:12.279Z,99849.664
2019-03-12T22:18:40.180Z,99837.531
2019-03-12T22:22:08.064Z,99825.5
2019-03-12T22:25:36.962Z,99814.296
2019-03-12T22:29:04.863Z,99807.906
2019-03-12T22:32:32.736Z,99800.515
2019-03-12T22:36:00.633Z,99791.25
2019-03-12T22:39:28.524Z,99786.39
2019-03-12T22:42:57.422Z,99783.875
2019-03-12T22:46:25.316Z,99773.859
2019-03-12T22:49:53.202Z,99769.843
2019-03-12T22:53:21.096Z,99771.718
2019-03-12T22:56:49.965Z,99765.453
